Time;durP1;ratioP1;P1;durP2;ratioP2;P2;SDS_P1;SDS_P2;PMS_P1;PMS_P2;Temp;Humidity;BMP_temperature;BMP_pressure;BME280_temperature;BME280_humidity;BME280_pressure;Samples;Min_cycle;Max_cycle;Signal;HPM_P1;HPM_P2
2021/05/25 00:00:08;;;;;;;0.70;0.60;;;10.20;99.90;;;10.53;100.00;-20968.66;5134864;27;20997;-79
2021/05/25 00:02:38;;;;;;;0.70;0.60;;;10.20;99.90;;;10.47;100.00;-20967.00;5131938;28;20474;-78
2021/05/25 00:05:08;;;;;;;0.70;0.60;;;10.10;99.90;;;10.44;100.00;-20966.16;5133756;28;20435;-80
2021/05/25 00:07:36;;;;;;;0.70;0.53;;;10.10;99.90;;;10.44;100.00;-20966.16;5113712;28;20471;-78
2021/05/25 00:10:07;;;;;;;0.70;0.60;;;10.10;99.90;;;10.45;100.00;-20966.44;5115213;28;20455;-80
2021/05/25 00:12:35;;;;;;;0.70;0.60;;;10.10;99.90;;;10.55;100.00;-20969.22;5133595;28;20435;-80
2021/05/25 00:15:07;;;;;;;0.70;0.60;;;10.10;99.90;;;10.55;100.00;-20969.06;5117074;28;20419;-79
2021/05/25 00:17:35;;;;;;;0.70;0.70;;;10.10;99.90;;;10.51;100.00;-20968.09;5114432;28;20458;-78
2021/05/25 00:20:06;;;;;;;0.70;0.60;;;10.20;99.90;;;10.56;100.00;-20969.47;5136292;27;20434;-77
2021/05/25 00:22:35;;;;;;;0.70;0.60;;;10.20;99.90;;;10.51;100.00;-20967.97;5128928;28;20833;-77
2021/05/25 00:25:05;;;;;;;0.70;0.60;;;10.20;99.90;;;10.47;100.00;-20967.00;5113663;28;20489;-80
2021/05/25 00:27:34;;;;;;;0.70;0.60;;;10.20;99.90;;;10.47;100.00;-20966.84;5129481;28;20430;-78
2021/05/25 00:30:05;;;;;;;0.70;0.60;;;10.20;99.90;;;10.52;100.00;-20968.38;5132889;27;20510;-77
2021/05/25 00:32:36;;;;;;;0.80;0.70;;;10.20;99.90;;;10.50;100.00;-20967.81;5133154;28;20442;-78
2021/05/25 00:35:06;;;;;;;0.70;0.50;;;10.20;99.90;;;10.48;100.00;-20967.28;5132490;27;20876;-78
2021/05/25 00:37:34;;;;;;;0.70;0.60;;;10.20;99.90;;;10.60;100.00;-20970.44;5115873;28;20930;-79
2021/05/25 00:40:02;;;;;;;0.70;0.60;;;10.20;99.90;;;10.55;100.00;-20969.22;5133566;28;20428;-78
2021/05/25 00:42:29;;;;;;;0.70;0.60;;;10.20;99.90;;;10.69;100.00;-20972.81;5133583;28;20797;-79
2021/05/25 00:44:58;;;;;;;0.70;0.60;;;10.30;99.90;;;10.71;100.00;-20973.34;5120470;28;20424;-77
2021/05/25 00:47:27;;;;;;;0.70;0.60;;;10.30;99.90;;;10.70;100.00;-20973.09;5112933;28;20434;-78
2021/05/25 00:49:55;;;;;;;0.70;0.60;;;10.20;99.90;;;10.53;100.00;-20968.66;5114416;28;20469;-79
2021/05/25 00:52:23;;;;;;;0.70;0.67;;;10.20;99.90;;;10.62;100.00;-20971.16;5118445;28;20820;-77
2021/05/25 00:54:51;;;;;;;0.70;0.60;;;10.20;99.90;;;10.54;100.00;-20968.94;5130397;28;20433;-77
2021/05/25 00:57:19;;;;;;;0.80;0.70;;;10.20;99.90;;;10.44;100.00;-20966.16;5129647;28;20474;-77
2021/05/25 00:59:46;;;;;;;0.70;0.60;;;10.10;99.90;;;10.34;100.00;-20963.41;5113050;28;20428;-78
2021/05/25 01:02:14;;;;;;;0.70;0.60;;;10.00;99.90;;;10.24;100.00;-20960.63;5129812;28;20423;-78
2021/05/25 01:04:42;;;;;;;0.70;0.60;;;10.00;99.90;;;10.22;100.00;-20960.06;5129604;28;20451;-80
2021/05/25 01:07:14;;;;;;;0.70;0.60;;;10.00;99.90;;;10.19;100.00;-20959.25;5129335;27;20445;-79
2021/05/25 01:09:41;;;;;;;0.70;0.60;;;9.90;99.90;;;10.14;100.00;-20958.00;5109050;28;20832;-78
2021/05/25 01:12:10;;;;;;;0.70;0.60;;;9.90;99.90;;;10.08;100.00;-20956.47;5116754;28;20992;-80
2021/05/25 01:14:44;;;;;;;0.70;0.60;;;9.80;99.90;;;10.08;100.00;-20956.47;5103989;27;20469;-79
2021/05/25 01:17:13;;;;;;;0.70;0.60;;;9.80;99.90;;;10.04;100.00;-20955.22;5116713;28;20407;-78
2021/05/25 01:19:41;;;;;;;0.70;0.60;;;9.80;99.90;;;10.00;100.00;-20954.25;5117500;27;20435;-77
2021/05/25 01:22:10;;;;;;;0.70;0.60;;;9.70;99.90;;;9.97;100.00;-20953.44;5116365;28;20495;-78
2021/05/25 01:24:38;;;;;;;0.70;0.60;;;9.70;99.90;;;9.90;100.00;-20951.50;5132740;27;20467;-74
2021/05/25 01:27:07;;;;;;;0.70;0.60;;;9.70;99.90;;;9.88;100.00;-20950.94;5117287;27;20870;-78
2021/05/25 01:29:37;;;;;;;0.70;0.60;;;9.60;99.90;;;9.86;100.00;-20950.38;5133193;27;20437;-79
2021/05/25 01:32:05;;;;;;;0.70;0.60;;;9.60;99.90;;;9.91;100.00;-20951.78;5130095;27;20431;-75
2021/05/25 01:34:35;;;;;;;0.70;0.60;;;9.60;99.90;;;9.76;100.00;-20947.63;5128249;27;20491;-79
2021/05/25 01:37:03;;;;;;;0.70;0.53;;;9.50;99.90;;;9.77;100.00;-20947.88;5126354;27;20454;-76
2021/05/25 01:39:32;;;;;;;0.70;0.60;;;9.50;99.90;;;9.85;100.00;-20950.09;5135270;27;20456;-78
2021/05/25 01:42:00;;;;;;;0.70;0.60;;;9.50;99.90;;;9.75;100.00;-20947.47;5131396;27;20846;-76
2021/05/25 01:44:28;;;;;;;0.70;0.60;;;9.50;99.90;;;9.72;100.00;-20946.66;5117152;28;20461;-78
2021/05/25 01:46:56;;;;;;;0.70;0.60;;;9.40;99.90;;;9.72;100.00;-20946.50;5125495;27;20476;-78
2021/05/25 01:49:23;;;;;;;0.70;0.60;;;9.40;99.90;;;9.69;100.00;-20945.81;5138332;27;20463;-79
2021/05/25 01:51:52;;;;;;;0.70;0.60;;;9.40;99.90;;;9.72;100.00;-20946.50;5136024;27;20405;-77
2021/05/25 01:54:20;;;;;;;0.70;0.60;;;9.40;99.90;;;9.70;100.00;-20946.09;5132909;27;20986;-76
2021/05/25 01:56:48;;;;;;;0.70;0.53;;;9.40;99.90;;;9.65;100.00;-20944.84;5132050;27;20477;-79
2021/05/25 01:59:21;;;;;;;0.70;0.50;;;9.40;99.90;;;9.68;100.00;-20945.69;5118116;27;20857;-80
2021/05/25 02:01:49;;;;;;;0.70;0.60;;;9.40;99.90;;;9.65;100.00;-20944.84;5136393;27;20438;-78
2021/05/25 02:04:16;;;;;;;0.70;0.60;;;9.30;99.90;;;9.64;100.00;-20944.56;5135418;27;21100;-77
2021/05/25 02:06:44;;;;;;;0.70;0.60;;;9.30;99.90;;;9.48;100.00;-20940.00;5133851;27;20436;-79
2021/05/25 02:09:11;;;;;;;0.70;0.57;;;9.20;99.90;;;9.18;100.00;-20932.09;5134749;27;20477;-82
2021/05/25 02:11:39;;;;;;;0.70;0.60;;;9.00;99.90;;;9.22;100.00;-20933.06;5136816;27;20515;-78
2021/05/25 02:14:08;;;;;;;0.70;0.60;;;8.90;99.90;;;9.08;100.00;-20929.31;5116973;27;20958;-79
2021/05/25 02:16:35;;;;;;;0.70;0.60;;;8.80;99.90;;;9.12;100.00;-20930.44;5135828;27;20539;-78
2021/05/25 02:19:03;;;;;;;0.70;0.60;;;8.80;99.90;;;9.06;100.00;-20928.78;5135413;27;20452;-79
2021/05/25 02:21:31;;;;;;;0.70;0.60;;;8.80;99.90;;;8.98;100.00;-20926.56;5133424;27;21042;-79
2021/05/25 02:23:59;;;;;;;0.70;0.60;;;8.80;99.90;;;9.00;100.00;-20926.97;5133731;27;20472;-77
2021/05/25 02:26:26;;;;;;;0.70;0.60;;;8.80;99.90;;;9.01;100.00;-20927.25;5135302;27;20509;-82
2021/05/25 02:28:55;;;;;;;0.70;0.60;;;8.80;99.90;;;9.05;100.00;-20928.50;5130183;27;20840;-80
2021/05/25 02:31:24;;;;;;;0.70;0.60;;;8.80;99.90;;;9.01;100.00;-20927.38;5134479;27;20779;-79
2021/05/25 02:33:51;;;;;;;0.70;0.60;;;8.80;99.90;;;8.92;100.00;-20924.91;5136784;27;20451;-78
2021/05/25 02:36:19;;;;;;;0.70;0.60;;;8.70;99.90;;;8.86;100.00;-20923.38;5136110;27;20424;-79
2021/05/25 02:38:47;;;;;;;0.70;0.60;;;8.70;99.90;;;8.86;100.00;-20923.38;5131276;27;20461;-79
2021/05/25 02:41:15;;;;;;;0.70;0.60;;;8.70;99.90;;;8.88;100.00;-20923.94;5121899;27;20509;-79
2021/05/25 02:43:43;;;;;;;0.70;0.60;;;8.60;99.90;;;8.81;100.00;-20921.84;5116780;27;20468;-78
2021/05/25 02:46:11;;;;;;;0.70;0.60;;;8.60;99.90;;;8.90;100.00;-20924.34;5134759;27;20431;-79
2021/05/25 02:48:40;;;;;;;0.70;0.60;;;8.60;99.90;;;8.91;100.00;-20924.75;5117448;27;20408;-80
2021/05/25 02:51:08;;;;;;;0.70;0.60;;;8.70;99.90;;;8.98;100.00;-20926.41;5134016;27;20443;-80
2021/05/25 02:53:35;;;;;;;0.70;0.60;;;8.70;99.90;;;9.05;100.00;-20928.34;5134936;27;20440;-79
2021/05/25 02:56:04;;;;;;;0.70;0.50;;;8.80;99.90;;;9.03;100.00;-20927.94;5130200;27;20792;-79
2021/05/25 02:58:31;;;;;;;0.70;0.60;;;8.80;99.90;;;9.13;100.00;-20930.72;5096806;28;20434;-78
2021/05/25 03:01:00;;;;;;;0.70;0.60;;;8.80;99.90;;;9.12;100.00;-20930.28;5114838;28;20434;-81
2021/05/25 03:03:28;;;;;;;0.70;0.60;;;8.80;99.90;;;9.17;100.00;-20931.81;5095852;28;20506;-80
2021/05/25 03:05:56;;;;;;;0.70;0.60;;;8.80;99.90;;;9.18;100.00;-20931.97;5115573;27;20532;-78
2021/05/25 03:08:24;;;;;;;0.70;0.60;;;8.80;99.90;;;9.23;100.00;-20933.22;5117858;27;20463;-76
2021/05/25 03:10:51;;;;;;;0.70;0.60;;;8.80;99.90;;;9.30;100.00;-20935.28;5135125;27;20412;-77
2021/05/25 03:13:19;;;;;;;0.70;0.60;;;8.90;99.90;;;9.30;100.00;-20935.16;5129997;27;20449;-79
2021/05/25 03:15:49;;;;;;;0.63;0.50;;;8.90;99.90;;;9.35;100.00;-20936.53;5096405;28;20541;-78
2021/05/25 03:18:17;;;;;;;0.70;0.60;;;9.00;99.90;;;9.38;100.00;-20937.38;5096595;28;20438;-79
2021/05/25 03:20:48;;;;;;;0.70;0.60;;;9.00;99.90;;;9.38;100.00;-20937.38;5114326;28;20825;-77
2021/05/25 03:23:17;;;;;;;0.70;0.60;;;9.00;99.90;;;9.51;100.00;-20940.81;5129141;27;20501;-78
2021/05/25 03:25:47;;;;;;;0.70;0.60;;;9.00;99.90;;;9.44;100.00;-20939.03;5130154;27;20448;-79
2021/05/25 03:28:16;;;;;;;0.70;0.60;;;9.00;99.90;;;9.32;100.00;-20935.69;5113497;27;20466;-80
2021/05/25 03:30:44;;;;;;;0.70;0.60;;;8.80;99.90;;;9.19;100.00;-20932.25;5132352;27;20443;-80
2021/05/25 03:33:12;;;;;;;0.70;0.60;;;8.70;99.90;;;9.07;100.00;-20929.06;5132590;27;20440;-80
2021/05/25 03:35:40;;;;;;;0.70;0.60;;;8.70;99.90;;;9.06;100.00;-20928.78;5134760;27;20456;-82
2021/05/25 03:38:08;;;;;;;0.70;0.60;;;8.70;99.90;;;9.01;100.00;-20927.25;5132288;27;20444;-82
2021/05/25 03:40:37;;;;;;;0.70;0.60;;;8.70;99.90;;;8.96;100.00;-20926.00;5135143;27;20448;-78
2021/05/25 03:43:05;;;;;;;0.70;0.50;;;8.70;99.90;;;8.95;100.00;-20925.72;5131919;27;20444;-79
2021/05/25 03:45:32;;;;;;;0.70;0.60;;;8.60;99.90;;;8.96;100.00;-20926.00;5132865;27;20549;-80
2021/05/25 03:48:00;;;;;;;0.70;0.60;;;8.70;99.90;;;8.99;100.00;-20926.84;5133698;27;20484;-80
2021/05/25 03:50:28;;;;;;;0.70;0.60;;;8.70;99.90;;;9.06;100.00;-20928.78;5134518;27;20443;-78
2021/05/25 03:52:57;;;;;;;0.70;0.60;;;8.70;99.90;;;9.11;100.00;-20930.16;5131908;27;20460;-79
2021/05/25 04:00:49;;;;;;;0.73;0.67;;;8.80;99.90;;;9.07;100.00;-20929.06;5129738;27;20512;-78
2021/05/25 04:03:17;;;;;;;0.70;0.60;;;8.70;99.90;;;9.04;100.00;-20928.22;5132192;28;20964;-79
2021/05/25 04:05:46;;;;;;;0.70;0.50;;;8.70;99.90;;;9.01;100.00;-20927.25;5112116;28;20517;-79
2021/05/25 04:08:14;;;;;;;0.70;0.60;;;8.70;99.90;;;9.05;100.00;-20928.50;5131536;28;20448;-78
2021/05/25 04:10:44;;;;;;;0.70;0.60;;;8.70;99.90;;;9.09;100.00;-20929.59;5130676;28;20536;-79
2021/05/25 04:13:13;;;;;;;0.70;0.60;;;8.80;99.90;;;9.10;100.00;-20929.88;5134983;27;20430;-81
2021/05/25 04:15:46;;;;;;;0.70;0.60;;;8.80;99.90;;;9.09;100.00;-20929.59;5116300;28;20830;-80
2021/05/25 04:18:14;;;;;;;0.70;0.60;;;8.80;99.90;;;9.14;100.00;-20931.00;5135715;27;20409;-80
2021/05/25 04:20:42;;;;;;;0.70;0.60;;;8.80;99.90;;;9.08;100.00;-20929.19;5115131;28;20452;-79
2021/05/25 04:23:10;;;;;;;0.70;0.53;;;8.80;99.90;;;9.08;100.00;-20929.31;5133680;28;20432;-78
2021/05/25 04:25:38;;;;;;;0.70;0.60;;;8.80;99.90;;;9.20;100.00;-20932.50;5115806;28;20459;-80
2021/05/25 04:28:06;;;;;;;0.70;0.60;;;8.80;99.90;;;9.21;100.00;-20932.78;5134587;28;20991;-79
2021/05/25 04:30:35;;;;;;;0.70;0.60;;;8.90;99.90;;;9.21;100.00;-20932.66;5133317;28;20437;-80
2021/05/25 04:33:03;;;;;;;0.70;0.50;;;8.90;99.90;;;9.27;100.00;-20934.44;5112347;28;20459;-80
2021/05/25 04:35:31;;;;;;;0.70;0.60;;;8.90;99.90;;;9.26;100.00;-20934.19;5113978;28;20925;-81
2021/05/25 04:37:59;;;;;;;0.70;0.60;;;8.90;99.90;;;9.36;100.00;-20936.81;5130839;28;20499;-81
2021/05/25 04:40:27;;;;;;;0.70;0.60;;;9.00;99.90;;;9.45;100.00;-20939.31;5113190;28;20458;-80
2021/05/25 04:42:55;;;;;;;0.67;0.57;;;8.90;99.90;;;9.38;100.00;-20937.38;5116833;28;20491;-78
2021/05/25 04:45:23;;;;;;;0.70;0.50;;;9.00;99.90;;;9.36;100.00;-20936.81;5116720;28;20468;-77
2021/05/25 04:47:52;;;;;;;0.70;0.60;;;9.00;99.90;;;9.29;100.00;-20934.88;5118072;27;20437;-77
2021/05/25 04:50:20;;;;;;;0.70;0.60;;;9.00;99.90;;;9.44;100.00;-20939.16;5119475;27;20433;-78
2021/05/25 04:52:49;;;;;;;0.70;0.50;;;9.10;99.90;;;9.48;100.00;-20940.00;5118485;27;20472;-79
2021/05/25 04:55:20;;;;;;;0.70;0.60;;;9.10;99.90;;;9.59;100.00;-20943.03;5136236;27;20426;-79
2021/05/25 04:57:49;;;;;;;0.70;0.60;;;9.20;99.90;;;9.78;100.00;-20948.16;5119842;27;20937;-79
2021/05/25 05:00:20;;;;;;;0.70;0.60;;;9.30;99.90;;;9.88;100.00;-20950.94;5118118;27;20944;-78
2021/05/25 05:02:48;;;;;;;0.70;0.60;;;9.50;99.90;;;9.86;100.00;-20950.38;5139565;27;20417;-78
2021/05/25 05:05:17;;;;;;;0.70;0.50;;;9.50;99.90;;;9.94;100.00;-20952.59;5137492;27;20860;-79
2021/05/25 05:07:44;;;;;;;0.70;0.60;;;9.50;99.90;;;9.83;100.00;-20949.56;5137466;27;20465;-78
2021/05/25 05:10:19;;;;;;;0.70;0.60;;;9.50;99.90;;;9.92;100.00;-20952.19;5136407;27;20940;-76
2021/05/25 05:12:47;;;;;;;0.70;0.60;;;9.50;99.90;;;9.72;100.00;-20946.50;5137862;27;20400;-78
2021/05/25 05:15:17;;;;;;;0.70;0.60;;;9.40;99.90;;;9.54;100.00;-20941.81;5136120;27;20473;-80
2021/05/25 05:17:46;;;;;;;0.70;0.60;;;9.30;99.90;;;9.41;100.00;-20938.19;5136741;27;20438;-78
2021/05/25 05:20:14;;;;;;;0.70;0.50;;;9.20;99.90;;;9.30;100.00;-20935.16;5138140;27;20747;-79
2021/05/25 05:22:45;;;;;;;0.70;0.60;;;9.00;99.90;;;9.16;100.00;-20931.41;5119691;27;20441;-77
2021/05/25 05:25:16;;;;;;;0.70;0.50;;;8.90;99.90;;;9.12;100.00;-20930.44;5118921;27;20473;-79
2021/05/25 05:27:44;;;;;;;0.70;0.50;;;8.80;99.90;;;9.03;100.00;-20927.81;5137193;27;20466;-78
2021/05/25 05:30:15;;;;;;;0.70;0.60;;;8.80;99.90;;;8.97;100.00;-20926.13;5115060;27;20438;-79
2021/05/25 05:32:43;;;;;;;0.70;0.60;;;8.70;99.90;;;8.93;100.00;-20925.16;5137752;27;20416;-77
2021/05/25 05:35:11;;;;;;;0.70;0.60;;;8.60;99.90;;;8.92;100.00;-20924.91;5126533;27;20850;-77
2021/05/25 05:37:38;;;;;;;0.70;0.70;;;8.60;99.90;;;9.03;100.00;-20927.94;5127588;27;20430;-79
2021/05/25 05:40:11;;;;;;;0.70;0.60;;;8.60;99.90;;;8.97;100.00;-20926.28;5119452;27;20543;-80
2021/05/25 05:42:58;;;;;;;0.70;0.57;;;8.60;99.90;;;8.97;100.00;-20926.28;5134900;27;20490;-77
2021/05/25 05:45:27;;;;;;;0.70;0.50;;;8.60;99.90;;;8.94;100.00;-20925.59;5138750;27;20460;-76
2021/05/25 05:47:55;;;;;;;0.70;0.60;;;8.60;99.90;;;9.03;100.00;-20927.94;5119560;27;20444;-78
2021/05/25 05:50:23;;;;;;;0.70;0.60;;;8.60;99.90;;;9.05;100.00;-20928.50;5118793;27;20465;-79
2021/05/25 05:52:52;;;;;;;0.70;0.60;;;8.60;99.90;;;9.03;100.00;-20927.94;5118509;27;20507;-79
2021/05/25 05:55:24;;;;;;;0.70;0.60;;;8.70;99.90;;;8.95;100.00;-20925.72;5119670;27;20932;-78
2021/05/25 05:57:55;;;;;;;0.70;0.53;;;8.60;99.90;;;9.01;100.00;-20927.38;5122428;27;20487;-79
2021/05/25 06:00:23;;;;;;;0.70;0.50;;;8.60;99.90;;;9.05;100.00;-20928.34;5117897;27;20948;-78
2021/05/25 06:02:51;;;;;;;0.70;0.60;;;8.60;99.90;;;8.95;100.00;-20925.88;5132952;27;20414;-80
2021/05/25 06:05:19;;;;;;;0.70;0.60;;;8.50;99.90;;;8.90;100.00;-20924.34;5116611;27;20802;-80
2021/05/25 06:07:46;;;;;;;0.70;0.60;;;8.50;99.90;;;9.00;100.00;-20927.13;5135879;27;20448;-81
2021/05/25 06:10:15;;;;;;;0.80;0.70;;;8.50;99.90;;;8.83;100.00;-20922.41;5114189;28;20443;-80
2021/05/25 06:12:44;;;;;;;0.70;0.60;;;8.50;99.90;;;8.92;100.00;-20925.03;5120956;27;20481;-79
2021/05/25 06:15:13;;;;;;;0.70;0.60;;;8.60;99.90;;;8.93;100.00;-20925.16;5135360;27;20440;-83
2021/05/25 06:17:41;;;;;;;0.70;0.60;;;8.60;99.90;;;9.11;100.00;-20930.16;5122218;27;20437;-78
2021/05/25 06:20:10;;;;;;;0.70;0.60;;;8.70;99.90;;;9.31;100.00;-20935.41;5131770;27;20893;-82
2021/05/25 06:22:38;;;;;;;0.70;0.60;;;8.80;99.90;;;9.30;100.00;-20935.16;5134134;27;20939;-81
2021/05/25 06:25:08;;;;;;;0.70;0.60;;;8.90;99.90;;;9.18;100.00;-20932.09;5133585;27;20479;-77
2021/05/25 06:27:36;;;;;;;0.70;0.60;;;8.90;99.90;;;9.24;100.00;-20933.63;5111272;27;20506;-81
2021/05/25 06:30:10;;;;;;;0.70;0.60;;;8.90;99.90;;;9.38;100.00;-20937.38;5134782;27;20472;-81
2021/05/25 06:32:38;;;;;;;0.70;0.60;;;8.90;99.90;;;9.27;100.00;-20934.44;5117630;27;20422;-81
2021/05/25 06:35:07;;;;;;;0.70;0.60;;;8.90;99.90;;;9.32;100.00;-20935.69;5136351;27;20413;-82
2021/05/25 06:37:35;;;;;;;0.70;0.70;;;8.90;99.90;;;9.23;100.00;-20933.22;5134543;27;20413;-82
2021/05/25 06:40:06;;;;;;;0.70;0.60;;;8.90;99.90;;;9.29;100.00;-20935.00;5131053;27;20536;-81
2021/05/25 06:42:34;;;;;;;0.70;0.60;;;8.90;99.90;;;9.14;100.00;-20930.84;5130502;27;20446;-82
2021/05/25 06:45:04;;;;;;;0.70;0.60;;;8.80;99.90;;;9.18;100.00;-20931.97;5134795;27;20963;-83
2021/05/25 06:47:33;;;;;;;0.70;0.60;;;8.80;99.90;;;9.17;100.00;-20931.69;5117449;27;20430;-82
2021/05/25 06:50:01;;;;;;;0.70;0.50;;;8.80;99.90;;;9.08;100.00;-20929.31;5134499;27;20501;-81
2021/05/25 06:52:28;;;;;;;0.70;0.50;;;8.80;99.90;;;9.11;100.00;-20930.16;5116362;27;20528;-80
2021/05/25 06:54:59;;;;;;;0.70;0.60;;;8.80;99.90;;;9.05;100.00;-20928.34;5128472;27;20473;-78
2021/05/25 06:57:26;;;;;;;0.70;0.60;;;8.80;99.90;;;9.19;100.00;-20932.25;5112336;27;20499;-82
2021/05/25 06:59:54;;;;;;;0.70;0.60;;;8.80;99.90;;;9.29;100.00;-20934.88;5113073;28;20422;-81
2021/05/25 07:02:23;;;;;;;0.70;0.53;;;8.90;99.90;;;9.41;100.00;-20938.19;5113609;27;20461;-81
2021/05/25 07:04:54;;;;;;;0.70;0.60;;;9.00;99.90;;;9.57;100.00;-20942.63;5112368;28;20505;-79
2021/05/25 07:07:25;;;;;;;0.70;0.60;;;9.10;99.90;;;9.73;100.00;-20946.78;5130818;27;20917;-81
2021/05/25 07:09:53;;;;;;;0.77;0.70;;;9.20;99.90;;;9.88;100.00;-20950.94;5115524;27;20828;-82
2021/05/25 07:12:21;;;;;;;0.70;0.60;;;9.20;99.90;;;9.78;100.00;-20948.16;5130913;27;20894;-81
2021/05/25 07:14:48;;;;;;;0.70;0.60;;;9.20;99.90;;;9.58;100.00;-20942.91;5113375;27;20449;-82
2021/05/25 07:17:17;;;;;;;0.70;0.60;;;9.20;99.90;;;9.52;100.00;-20941.25;5131695;27;20473;-83
2021/05/25 07:19:45;;;;;;;0.70;0.60;;;9.10;99.90;;;9.52;100.00;-20941.09;5146254;27;20427;-81
2021/05/25 07:22:13;;;;;;;0.70;0.50;;;9.10;99.90;;;9.51;100.00;-20940.97;5115146;27;20437;-81
2021/05/25 07:24:41;;;;;;;0.70;0.57;;;9.10;99.90;;;9.52;100.00;-20941.09;5132828;27;20996;-82
2021/05/25 07:27:09;;;;;;;0.70;0.60;;;9.10;99.90;;;9.46;100.00;-20939.56;5133131;27;20429;-80
2021/05/25 07:29:37;;;;;;;0.70;0.60;;;9.10;99.90;;;9.52;100.00;-20941.09;5115088;27;20954;-80
2021/05/25 07:32:06;;;;;;;0.70;0.50;;;9.00;99.90;;;9.25;100.00;-20933.91;5119995;27;20441;-79
2021/05/25 07:34:33;;;;;;;0.70;0.60;;;8.90;99.90;;;9.16;100.00;-20931.41;5113354;28;20516;-81
2021/05/25 07:37:02;;;;;;;0.70;0.50;;;8.70;99.90;;;8.92;100.00;-20924.91;5114083;28;20935;-79
2021/05/25 07:39:31;;;;;;;0.70;0.60;;;8.20;99.90;;;8.84;100.00;-20922.69;5121534;27;20868;-80
2021/05/25 07:41:59;;;;;;;0.70;0.60;;;8.00;99.90;;;8.64;100.00;-20917.41;5112551;28;21013;-80
2021/05/25 07:44:27;;;;;;;0.70;0.60;;;7.90;99.90;;;8.55;100.00;-20914.91;5113883;28;20504;-78
2021/05/25 07:46:56;;;;;;;0.70;0.60;;;7.90;99.90;;;8.70;100.00;-20919.06;5116144;27;20540;-78
2021/05/25 07:49:24;;;;;;;0.70;0.50;;;8.00;99.90;;;8.98;100.00;-20926.41;5114610;27;20417;-77
2021/05/25 07:51:53;;;;;;;0.70;0.60;;;8.20;99.90;;;9.35;100.00;-20936.69;5132419;27;20443;-76
2021/05/25 07:54:20;;;;;;;0.70;0.50;;;8.20;99.90;;;9.37;100.00;-20937.22;5111969;28;20445;-76
2021/05/25 07:56:49;;;;;;;0.70;0.50;;;8.50;99.90;;;9.44;100.00;-20939.16;5095751;28;20796;-77
2021/05/25 07:59:17;;;;;;;0.70;0.60;;;8.30;99.90;;;9.39;100.00;-20937.66;5097626;28;20529;-77
2021/05/25 08:01:45;;;;;;;0.70;0.60;;;8.50;99.90;;;9.62;100.00;-20944.00;5112654;28;20587;-79
2021/05/25 08:04:12;;;;;;;0.70;0.60;;;8.70;99.90;;;9.43;100.00;-20938.88;5132729;28;20452;-77
2021/05/25 08:06:41;;;;;;;0.80;0.70;;;8.80;99.90;;;10.14;100.00;-20958.13;5133507;28;20469;-76
2021/05/25 08:09:08;;;;;;;0.70;0.60;;;9.50;99.90;;;10.51;100.00;-20968.09;5132316;28;20468;-76
2021/05/25 08:11:36;;;;;;;0.70;0.70;;;9.80;99.90;;;10.93;100.00;-20979.44;5132947;28;20910;-76
2021/05/25 08:14:09;;;;;;;0.80;0.70;;;10.40;99.90;;;11.30;100.00;-20989.53;5109048;28;20948;-77
2021/05/25 08:16:39;;;;;;;0.70;0.60;;;10.60;99.90;;;11.53;100.00;-20995.75;5134135;27;20822;-76
2021/05/25 08:19:11;;;;;;;0.70;0.70;;;10.90;99.90;;;12.27;100.00;-21015.66;5127129;27;20460;-76
2021/05/25 08:21:40;;;;;;;0.70;0.60;;;11.40;99.90;;;12.67;100.00;-21026.41;5137240;27;20498;-75
2021/05/25 08:24:09;;;;;;;0.73;0.70;;;11.50;99.90;;;12.92;100.00;-21033.31;5136392;27;20447;-75
2021/05/25 08:26:40;;;;;;;0.70;0.60;;;11.50;99.90;;;12.74;100.00;-21028.34;5137380;27;20512;-76
2021/05/25 08:29:12;;;;;;;0.80;0.70;;;11.10;99.90;;;12.49;100.00;-21021.72;5121039;27;20799;-76
2021/05/25 08:31:40;;;;;;;0.73;0.63;;;11.10;99.90;;;11.97;100.00;-21007.50;5136888;27;20430;-76
2021/05/25 08:34:08;;;;;;;0.70;0.70;;;11.00;99.90;;;12.21;100.00;-21014.00;5136839;27;20495;-76
2021/05/25 08:36:36;;;;;;;0.80;0.70;;;11.00;99.90;;;11.72;100.00;-21000.72;5137198;27;20481;-79
2021/05/25 08:39:05;;;;;;;0.70;0.63;;;10.70;99.90;;;11.37;100.00;-20991.47;5135910;27;20460;-76
2021/05/25 08:41:34;;;;;;;0.70;0.60;;;10.60;99.90;;;11.46;100.00;-20993.81;5136045;27;20432;-78
2021/05/25 08:44:03;;;;;;;0.70;0.60;;;10.60;99.90;;;10.99;100.00;-20981.09;5136584;27;20440;-77
2021/05/25 08:46:33;;;;;;;0.70;0.60;;;10.50;99.90;;;10.95;100.00;-20980.00;5119708;27;20891;-79
2021/05/25 08:49:02;;;;;;;0.70;0.60;;;10.10;99.90;;;10.63;100.00;-20971.41;5119339;27;20435;-80
2021/05/25 08:51:30;;;;;;;0.70;0.70;;;10.10;99.90;;;10.61;100.00;-20970.72;5129677;27;20935;-80
2021/05/25 08:54:00;;;;;;;0.70;0.60;;;10.10;99.90;;;10.81;100.00;-20976.25;5137722;27;20971;-79
2021/05/25 08:56:30;;;;;;;0.70;0.60;;;10.30;99.90;;;11.83;100.00;-21003.75;5134315;27;20872;-79
2021/05/25 08:58:59;;;;;;;0.70;0.60;;;10.80;99.90;;;11.91;100.00;-21005.97;5115314;28;20433;-79
2021/05/25 09:01:32;;;;;;;0.70;0.60;;;11.20;99.90;;;11.51;100.00;-20995.06;5135876;27;20453;-77
2021/05/25 09:04:02;;;;;;;0.80;0.70;;;10.90;99.90;;;11.72;100.00;-21000.72;5135724;27;20446;-78
2021/05/25 09:06:42;;;;;;;0.70;0.70;;;10.90;99.90;;;11.41;100.00;-20992.44;5120571;27;20469;-78
2021/05/25 09:09:12;;;;;;;0.80;0.73;;;10.80;99.90;;;11.42;100.00;-20992.56;5132976;27;20530;-84
2021/05/25 09:12:08;;;;;;;0.80;0.70;;;10.80;99.90;;;12.08;100.00;-21010.69;5139991;27;20454;-83
2021/05/25 09:14:49;;;;;;;0.70;0.60;;;10.90;99.90;;;11.97;100.00;-21007.63;5115800;28;20449;-78
2021/05/25 09:17:22;;;;;;;0.70;0.60;;;11.10;99.90;;;12.45;100.00;-21020.47;5106670;27;20489;-83
2021/05/25 09:19:52;;;;;;;0.70;0.70;;;11.20;99.90;;;12.49;100.00;-21021.72;5115580;27;20461;-82
2021/05/25 09:22:42;;;;;;;0.80;0.70;;;11.30;99.90;;;12.89;100.00;-21032.34;5119140;27;20425;-83
2021/05/25 09:25:21;;;;;;;0.70;0.60;;;11.40;99.90;;;13.26;100.00;-21042.41;5133395;27;20465;-80
2021/05/25 09:28:26;;;;;;;0.77;0.70;;;11.80;99.90;;;13.97;100.00;-21061.69;5118817;27;20438;-80
2021/05/25 09:30:47;;;;;;;0.80;0.70;;;12.30;99.90;;;13.19;100.00;-21040.47;5132684;27;20488;-78
2021/05/25 09:33:17;;;;;;;0.70;0.70;;;12.40;99.90;;;13.21;100.00;-21041.03;5135917;27;20436;-77
2021/05/25 09:35:48;;;;;;;0.80;0.70;;;12.10;99.90;;;12.98;100.00;-21034.81;5135924;27;20414;-80
2021/05/25 09:38:17;;;;;;;0.70;0.60;;;11.70;99.90;;;13.10;100.00;-21038.00;5134395;27;20786;-76
2021/05/25 09:40:48;;;;;;;0.70;0.60;;;11.80;99.90;;;13.70;100.00;-21054.25;5120914;27;21044;-81
2021/05/25 09:43:20;;;;;;;0.70;0.60;;;12.70;99.90;;;14.02;100.00;-21063.06;5133441;27;20447;-79
2021/05/25 09:46:06;;;;;;;0.80;0.70;;;13.00;99.90;;;13.74;100.00;-21055.38;5135643;27;20456;-81
2021/05/25 09:48:53;;;;;;;0.80;0.70;;;12.80;99.90;;;13.53;100.00;-21049.72;5137245;27;20787;-77
2021/05/25 09:51:23;;;;;;;0.73;0.67;;;12.50;99.90;;;13.70;100.00;-21054.41;5136040;27;20465;-81
2021/05/25 09:53:58;;;;;;;0.70;0.60;;;12.20;99.90;;;13.72;100.00;-21054.81;5134287;27;20463;-76
2021/05/25 09:56:28;;;;;;;0.80;0.70;;;12.10;99.90;;;12.98;100.00;-21034.81;5133917;27;20434;-82
2021/05/25 09:58:59;;;;;;;0.70;0.67;;;11.80;99.90;;;12.75;100.00;-21028.63;5132625;27;20947;-86
2021/05/25 10:01:36;;;;;;;0.70;0.60;;;11.60;99.90;;;12.62;100.00;-21025.03;5115700;28;20430;-79
2021/05/25 10:04:12;;;;;;;0.70;0.70;;;11.50;99.90;;;12.00;100.00;-21008.31;5115364;28;20437;-79
2021/05/25 10:06:42;;;;;;;0.70;0.60;;;11.50;99.90;;;11.54;100.00;-20996.03;5098315;28;20973;-85
2021/05/25 10:09:11;;;;;;;0.80;0.77;;;11.00;99.90;;;11.32;100.00;-20990.09;5138247;27;20465;-80
2021/05/25 10:11:42;;;;;;;0.70;0.60;;;10.70;99.90;;;10.97;100.00;-20980.56;5119185;27;21024;-84
2021/05/25 10:14:12;;;;;;;0.70;0.60;;;10.50;99.90;;;11.01;100.00;-20981.66;5116562;27;20440;-82
2021/05/25 10:16:43;;;;;;;0.70;0.60;;;10.30;99.90;;;10.96;100.00;-20980.28;5128184;27;20486;-84
2021/05/25 10:21:43;;;;;;;0.80;0.70;;;10.30;99.90;;;10.58;100.00;-20970.03;5130957;27;20456;-83
2021/05/25 10:24:11;;;;;;;0.70;0.60;;;10.30;99.90;;;10.74;100.00;-20974.19;5134967;27;20461;-84
2021/05/25 10:26:39;;;;;;;0.80;0.60;;;10.40;99.90;;;10.67;100.00;-20972.25;5131076;27;20879;-83
2021/05/25 10:29:06;;;;;;;0.70;0.60;;;10.40;99.90;;;11.02;100.00;-20981.78;5134808;27;20455;-82
2021/05/25 10:31:36;;;;;;;0.70;0.60;;;10.50;99.90;;;11.15;100.00;-20985.38;5134617;27;20437;-81